Home   Weather   Finland   Kuusamo   Past weeks
Flag for Finland

Past Weather in Kuusamo, Finland — Yesterday and Last 2 Weeks

Currently: 59 °F. Passing clouds. (Weather station: Kuusamo Airport, Finland). See more current weather

Past Weather in Kuusamo — Graph

°F

Kuusamo Temperature Yesterday

Maximum temperature yesterday: 72 °F (at 2:50 pm)
Minimum temperature yesterday: 41 °F (at 3:50 am)
Average temperature yesterday: 59 °F

High & Low Weather Summary for the Past Weeks

 TemperatureHumidityPressure
High72 °F (May 18, 2:50 pm)100% (May 14, 12:20 am)30.33 "Hg (May 14, 12:20 am)
Low18 °F (May 9, 4:20 am)25% (May 18, 3:20 pm)29.59 "Hg (May 19, 10:50 am)
Average41 °F63%30.00 "Hg
* Reported May 4 1:20 pm — May 19 1:20 pm, Kuusamo. Weather by CustomWeather, © 2024

Note: Actual official high and low records may vary slightly from our data, if they occured in-between our weather recording intervals... More about our weather records

Kuusamo Weather History for the Previous 24 Hours

Scroll right to see more
 ConditionsComfort  
Time TempWeatherWind HumidityBarometerVisibility
1:20 pm
Sun, May 19
61 °FSunny.17 mph48%29.62 "Hg10 mi
12:50 pm61 °FPassing clouds.17 mph52%29.62 "HgN/A
12:20 pm61 °FPassing clouds.15 mph48%29.59 "HgN/A
11:50 am63 °FSunny.22 mph45%29.59 "Hg10 mi
11:20 am63 °FPassing clouds.18 mph45%29.59 "HgN/A
10:50 am57 °FSunny.15 mph51%29.59 "Hg10 mi
10:20 am57 °FSunny.15 mph51%29.62 "Hg10 mi
9:50 am57 °FPassing clouds.10 mph55%29.62 "HgN/A
9:20 am55 °FPassing clouds.9 mph55%29.62 "HgN/A
8:50 am55 °FSunny.9 mph55%29.65 "Hg10 mi
8:20 am54 °FSunny.12 mph58%29.65 "Hg10 mi
7:50 am54 °FSunny.12 mph58%29.65 "Hg10 mi
7:20 am52 °FSunny.13 mph58%29.65 "Hg10 mi
6:50 am52 °FPassing clouds.9 mph58%29.65 "HgN/A
6:20 am52 °FSunny.7 mph58%29.65 "Hg10 mi
5:50 am52 °FSunny.8 mph58%29.68 "Hg10 mi
5:20 am52 °FSunny.8 mph58%29.68 "Hg10 mi
4:50 am52 °FPassing clouds.9 mph54%29.68 "HgN/A
4:20 am52 °FSunny.8 mph54%29.71 "Hg10 mi
3:50 am52 °FSunny.12 mph54%29.68 "Hg10 mi
3:20 am52 °FSunny.10 mph54%29.71 "Hg10 mi
2:50 am54 °FClear.14 mph51%29.71 "Hg10 mi
2:20 am54 °FClear.15 mph51%29.71 "Hg10 mi
1:50 am54 °FClear.15 mph51%29.71 "Hg10 mi
1:20 am54 °FClear.12 mph51%29.74 "Hg10 mi
12:50 am55 °FClear.14 mph47%29.74 "Hg10 mi
12:20 am55 °FClear.12 mph44%29.74 "Hg10 mi
11:50 pm
Sat, May 18
55 °FClear.7 mph44%29.77 "Hg10 mi
11:20 pm57 °FClear.10 mph41%29.77 "Hg10 mi
10:50 pm59 °FClear.8 mph39%29.77 "Hg10 mi
9:50 pm61 °FPassing clouds.9 mph36%29.77 "HgN/A
9:20 pm63 °FPassing clouds.10 mph34%29.77 "HgN/A
8:50 pm64 °FPassing clouds.10 mph32%29.80 "HgN/A
8:20 pm66 °FPassing clouds.14 mph30%29.80 "HgN/A
7:20 pm68 °FPassing clouds.15 mph28%29.80 "HgN/A
6:20 pm68 °FSunny.18 mph28%29.80 "Hg10 mi
5:20 pm68 °FPassing clouds.17 mph28%29.83 "HgN/A
4:20 pm70 °FPassing clouds.21 mph27%29.83 "HgN/A
3:50 pm70 °FSunny.21 mph27%29.83 "Hg10 mi
3:20 pm72 °FPassing clouds.20 mph25%29.83 "HgN/A
2:50 pm72 °FPassing clouds.17 mph29%29.83 "HgN/A
2:20 pm70 °FPassing clouds.20 mph31%29.83 "HgN/A
Weather by CustomWeather, © 2024

See weather overview